KBKD/BKD METAR and TAF weather

Enter ICAO airport designator
Station Type Date Time Source
KBKD METAR 2018/01/24 06:55 UTC NOAA

KBKD 240655Z AUTO 00000KT 10SM CLR M02/M09 A3038 RMK AO2 T10181093


Station Type Date Time Source
KBKD Decoded METAR 2018/01/24 06:55 UTC NOAA

Station name not available
Jan 24, 2018 - 01:55 AM EST / 2018.01.24 0655 UTC
Wind: Calm:0
Visibility: 10 mile(s):0
Sky conditions: clear
Temperature: 28.8 F (-1.8 C)
Dew Point: 15.3 F (-9.3 C)
Relative Humidity: 56%
Pressure (altimeter): 30.38 in. Hg (1028 hPa)
ob: KBKD 240655Z AUTO 00000KT 10SM CLR M02/M09 A3038 RMK AO2 T10181093
cycle: 7

Station Type Date Time Source
KBKD TAF UTC NOAA

Error!


Example: see airport list